createdAt,value
2019-01-21T00:00:27.967Z,-0.44
2019-01-21T00:02:56.430Z,-0.44
2019-01-21T00:05:24.959Z,-0.46
2019-01-21T00:07:53.467Z,-0.45
2019-01-21T00:10:21.921Z,-0.47
2019-01-21T00:12:50.462Z,-0.50
2019-01-21T00:15:18.969Z,-0.51
2019-01-21T00:17:47.429Z,-0.52
2019-01-21T00:20:15.959Z,-0.52
2019-01-21T00:22:44.460Z,-0.55
2019-01-21T00:25:12.919Z,-0.57
2019-01-21T00:27:42.684Z,-0.58
2019-01-21T00:30:12.513Z,-0.60
2019-01-21T00:32:40.980Z,-0.59
2019-01-21T00:35:10.278Z,-0.58
2019-01-21T00:37:38.875Z,-0.55
2019-01-21T00:40:10.592Z,-0.52
2019-01-21T00:42:39.131Z,-0.50
2019-01-21T00:45:07.884Z,-0.47
2019-01-21T00:47:36.353Z,-0.46
2019-01-21T00:50:08.041Z,-0.46
2019-01-21T00:52:36.538Z,-0.47
2019-01-21T00:55:07.835Z,-0.50
2019-01-21T00:57:36.292Z,-0.51
2019-01-21T01:00:07.966Z,-0.51
2019-01-21T01:02:36.434Z,-0.54
2019-01-21T01:05:06.720Z,-0.54
2019-01-21T01:07:35.223Z,-0.55
2019-01-21T01:10:05.160Z,-0.57
2019-01-21T01:12:33.626Z,-0.58
2019-01-21T01:15:02.137Z,-0.57
2019-01-21T01:17:33.389Z,-0.56
2019-01-21T01:20:00.782Z,-0.54
2019-01-21T01:22:29.282Z,-0.53
2019-01-21T01:24:57.739Z,-0.53
2019-01-21T01:27:26.213Z,-0.53
2019-01-21T01:29:56.160Z,-0.53
2019-01-21T01:32:24.623Z,-0.53
2019-01-21T01:34:53.088Z,-0.53
2019-01-21T01:37:21.612Z,-0.53
2019-01-21T01:39:50.071Z,-0.56
2019-01-21T01:42:18.525Z,-0.60
2019-01-21T01:44:47.117Z,-0.63
2019-01-21T01:47:15.570Z,-0.66
2019-01-21T01:49:44.108Z,-0.71
2019-01-21T01:52:12.722Z,-0.74
2019-01-21T01:54:42.209Z,-0.78
2019-01-21T01:57:10.746Z,-0.83
2019-01-21T01:59:39.323Z,-0.87
2019-01-21T02:02:07.782Z,-0.90
2019-01-21T02:04:36.326Z,-0.92
2019-01-21T02:07:05.369Z,-0.93
2019-01-21T02:09:33.876Z,-0.92
2019-01-21T02:12:02.298Z,-0.90
2019-01-21T02:14:30.785Z,-0.91
2019-01-21T02:16:59.330Z,-0.93
2019-01-21T02:19:29.746Z,-0.94
2019-01-21T02:21:58.794Z,-0.96
2019-01-21T02:24:29.691Z,-1.01
2019-01-21T02:27:04.050Z,-1.02
2019-01-21T02:29:35.789Z,-1.06
2019-01-21T02:32:19.243Z,-1.09
2019-01-21T02:34:56.557Z,-1.11
2019-01-21T02:37:37.191Z,-1.15
2019-01-21T02:40:25.290Z,-1.18
2019-01-21T02:42:57.068Z,-1.22
2019-01-21T02:45:52.927Z,-1.27
2019-01-21T02:48:41.296Z,-1.33
2019-01-21T02:51:31.135Z,-1.34
2019-01-21T02:54:11.930Z,-1.37
2019-01-21T02:56:49.182Z,-1.37
2019-01-21T02:59:33.037Z,-1.35
2019-01-21T03:02:23.043Z,-1.36
2019-01-21T03:05:03.846Z,-1.36
2019-01-21T03:07:55.115Z,-1.37
2019-01-21T03:10:35.954Z,-1.38
2019-01-21T03:13:10.671Z,-1.39
2019-01-21T03:16:09.121Z,-1.44
2019-01-21T03:18:52.416Z,-1.48
2019-01-21T03:21:24.185Z,-1.55
2019-01-21T03:24:15.319Z,-1.58
2019-01-21T03:26:56.338Z,-1.64
2019-01-21T03:29:53.712Z,-1.68
2019-01-21T03:32:49.053Z,-1.73
2019-01-21T03:35:26.280Z,-1.78
2019-01-21T03:38:09.350Z,-1.83
2019-01-21T03:40:43.914Z,-1.84
2019-01-21T03:43:15.686Z,-1.86
2019-01-21T03:46:02.269Z,-1.87
2019-01-21T03:48:33.895Z,-1.88
2019-01-21T03:51:17.424Z,-1.89
2019-01-21T03:53:51.909Z,-1.88
2019-01-21T03:56:23.988Z,-1.88
2019-01-21T03:59:01.938Z,-1.88
2019-01-21T04:01:39.696Z,-1.92
2019-01-21T04:04:29.239Z,-1.96
2019-01-21T04:07:01.335Z,-1.97
2019-01-21T04:09:42.351Z,-1.99
2019-01-21T04:12:15.022Z,-1.99
2019-01-21T04:15:01.997Z,-1.99
2019-01-21T04:18:07.135Z,-1.99
2019-01-21T04:20:44.385Z,-1.99
2019-01-21T04:23:24.872Z,-1.99
2019-01-21T04:26:01.384Z,-1.98
2019-01-21T04:28:33.123Z,-2.00
2019-01-21T04:31:05.128Z,-2.01
2019-01-21T04:33:43.608Z,-2.03
2019-01-21T04:36:32.082Z,-2.03
2019-01-21T04:39:18.861Z,-2.01
2019-01-21T04:42:16.112Z,-2.01
2019-01-21T04:45:30.531Z,-2.02
2019-01-21T04:48:05.229Z,-2.05
2019-01-21T04:51:02.230Z,-2.05
2019-01-21T04:53:33.977Z,-2.08
2019-01-21T04:56:22.244Z,-2.07
2019-01-21T04:59:17.464Z,-2.08
2019-01-21T05:01:49.231Z,-2.09
2019-01-21T05:04:23.862Z,-2.14
2019-01-21T05:07:10.583Z,-2.19
2019-01-21T05:09:54.160Z,-2.22
2019-01-21T05:12:44.039Z,-2.26
2019-01-21T05:15:35.743Z,-2.30
2019-01-21T05:18:25.504Z,-2.34
2019-01-21T05:21:30.594Z,-2.33
2019-01-21T05:24:11.409Z,-2.34
2019-01-21T05:27:02.888Z,-2.35
2019-01-21T05:29:43.472Z,-2.35
2019-01-21T05:32:15.191Z,-2.36
2019-01-21T05:34:50.010Z,-2.36
2019-01-21T05:37:39.783Z,-2.36
2019-01-21T05:40:20.791Z,-2.36
2019-01-21T05:43:04.176Z,-2.36
2019-01-21T05:45:48.082Z,-2.36
2019-01-21T05:48:40.736Z,-2.38
2019-01-21T05:51:24.558Z,-2.39
2019-01-21T05:54:17.316Z,-2.42
2019-01-21T05:56:57.732Z,-2.46
2019-01-21T05:59:49.046Z,-2.49
2019-01-21T06:02:23.715Z,-2.51
2019-01-21T06:04:55.584Z,-2.57
2019-01-21T06:07:36.065Z,-2.57
2019-01-21T06:10:16.669Z,-2.57
2019-01-21T06:12:51.157Z,-2.53
2019-01-21T06:15:28.657Z,-2.54
2019-01-21T06:18:11.740Z,-2.53
2019-01-21T06:21:02.987Z,-2.54
2019-01-21T06:23:46.825Z,-2.58
2019-01-21T06:26:24.716Z,-2.57
2019-01-21T06:29:05.682Z,-2.65
2019-01-21T06:31:49.333Z,-2.65
2019-01-21T06:34:33.271Z,-2.65
2019-01-21T06:37:08.777Z,-2.67
2019-01-21T06:39:42.982Z,-2.65
2019-01-21T06:42:31.466Z,-2.62
2019-01-21T06:45:03.223Z,-2.59
2019-01-21T06:47:40.841Z,-2.59
2019-01-21T06:50:29.423Z,-2.49
2019-01-21T06:53:18.555Z,-2.46
2019-01-21T06:55:52.775Z,-2.42
2019-01-21T06:58:44.186Z,-2.44
2019-01-21T07:01:21.714Z,-2.47
2019-01-21T07:03:59.084Z,-2.50
2019-01-21T07:06:48.569Z,-2.53
2019-01-21T07:09:23.257Z,-2.57
2019-01-21T07:12:03.592Z,-2.58
2019-01-21T07:14:41.024Z,-2.57
2019-01-21T07:17:28.523Z,-2.58
2019-01-21T07:20:16.709Z,-2.59
2019-01-21T07:23:03.429Z,-2.60
2019-01-21T07:25:44.158Z,-2.61
2019-01-21T07:28:21.436Z,-2.62
2019-01-21T07:30:58.474Z,-2.62
2019-01-21T07:33:32.821Z,-2.61
2019-01-21T07:36:16.309Z,-2.56
2019-01-21T07:39:04.025Z,-2.61
2019-01-21T07:41:52.368Z,-2.56
2019-01-21T07:44:38.936Z,-2.54
2019-01-21T07:47:19.625Z,-2.51
2019-01-21T07:49:51.383Z,-2.49
2019-01-21T07:52:41.386Z,-2.48
2019-01-21T07:55:18.866Z,-2.48
2019-01-21T07:57:53.418Z,-2.43
2019-01-21T08:00:33.810Z,-2.41
2019-01-21T08:03:23.613Z,-2.41
2019-01-21T08:05:58.155Z,-2.40
2019-01-21T08:08:41.812Z,-2.39
2019-01-21T08:11:31.889Z,-2.39
2019-01-21T08:14:06.434Z,-2.39
2019-01-21T08:16:47.021Z,-2.35
2019-01-21T08:19:36.760Z,-2.32
2019-01-21T08:22:14.498Z,-2.29
2019-01-21T08:24:51.701Z,-2.26
2019-01-21T08:27:45.907Z,-2.21
2019-01-21T08:30:29.538Z,-2.18
2019-01-21T08:33:16.076Z,-2.14
2019-01-21T08:35:47.810Z,-2.14
2019-01-21T08:38:25.363Z,-2.11
2019-01-21T08:41:00.876Z,-2.07
2019-01-21T08:43:50.823Z,-2.02
2019-01-21T08:47:06.438Z,-1.98
2019-01-21T08:50:00.703Z,-1.92
2019-01-21T08:52:38.255Z,-1.85
2019-01-21T08:55:32.007Z,-1.79
2019-01-21T08:58:26.605Z,-1.76
2019-01-21T09:01:22.427Z,-1.74
2019-01-21T09:04:11.807Z,-1.73
2019-01-21T09:07:00.762Z,-1.74
2019-01-21T09:09:37.113Z,-1.72
2019-01-21T09:12:33.134Z,-1.74
2019-01-21T09:15:19.776Z,-1.71
2019-01-21T09:17:57.699Z,-1.68
2019-01-21T09:20:38.485Z,-1.68
2019-01-21T09:23:26.995Z,-1.67
2019-01-21T09:26:28.952Z,-1.65
2019-01-21T09:29:16.993Z,-1.61
2019-01-21T09:32:00.650Z,-1.59
2019-01-21T09:34:35.102Z,-1.56
2019-01-21T09:37:21.402Z,-1.51
2019-01-21T09:39:56.699Z,-1.46
2019-01-21T09:42:45.225Z,-1.43
2019-01-21T09:45:33.529Z,-1.41
2019-01-21T09:48:01.054Z,-1.37
2019-01-21T09:50:29.783Z,-1.36
2019-01-21T09:52:58.548Z,-1.34
2019-01-21T09:55:27.104Z,-1.33
2019-01-21T09:58:04.925Z,-1.31
2019-01-21T10:00:33.489Z,-1.26
2019-01-21T10:03:03.858Z,-1.22
2019-01-21T10:05:33.772Z,-1.16
2019-01-21T10:08:07.897Z,-1.11
2019-01-21T10:10:42.598Z,-1.04
2019-01-21T10:13:26.065Z,-0.99
2019-01-21T10:16:09.765Z,-0.93
2019-01-21T10:18:41.396Z,-0.86
2019-01-21T10:21:25.283Z,-0.80
2019-01-21T10:24:05.705Z,-0.74
2019-01-21T10:26:40.347Z,-0.68
2019-01-21T10:29:20.912Z,-0.64
2019-01-21T10:31:59.475Z,-0.62
2019-01-21T10:34:37.015Z,-0.62
2019-01-21T10:37:23.731Z,-0.61
2019-01-21T10:40:10.300Z,-0.56
2019-01-21T10:42:47.783Z,-0.52
2019-01-21T10:45:25.912Z,-0.50
2019-01-21T10:48:23.456Z,-0.46
2019-01-21T10:50:59.035Z,-0.44
2019-01-21T10:53:30.709Z,-0.38
2019-01-21T10:56:05.032Z,-0.32
2019-01-21T10:58:42.439Z,-0.24
2019-01-21T11:01:30.544Z,-0.18
2019-01-21T11:04:02.227Z,-0.14
2019-01-21T11:06:49.112Z,-0.12
2019-01-21T11:09:33.260Z,-0.13
2019-01-21T11:12:26.112Z,-0.13
2019-01-21T11:15:12.596Z,-0.11
2019-01-21T11:17:52.980Z,-0.11
2019-01-21T11:20:48.923Z,-0.09
2019-01-21T11:23:38.447Z,-0.08
2019-01-21T11:26:22.037Z,-0.06
2019-01-21T11:28:59.554Z,-0.03
2019-01-21T11:31:43.238Z,0.03
2019-01-21T11:34:20.823Z,0.09
2019-01-21T11:37:14.656Z,0.13
2019-01-21T11:39:52.216Z,0.16
2019-01-21T11:42:29.297Z,0.20
2019-01-21T11:45:18.926Z,0.23
2019-01-21T11:47:53.806Z,0.26
2019-01-21T11:50:25.438Z,0.28
2019-01-21T11:52:57.082Z,0.30
2019-01-21T11:55:40.851Z,0.32
2019-01-21T11:58:29.814Z,0.33
2019-01-21T12:01:36.372Z,0.34
2019-01-21T12:04:16.588Z,0.34
2019-01-21T12:07:03.032Z,0.38
2019-01-21T12:09:46.806Z,0.38
2019-01-21T12:12:18.480Z,0.43
2019-01-21T12:15:05.037Z,0.43
2019-01-21T12:17:36.700Z,0.48
2019-01-21T12:20:35.743Z,0.52
2019-01-21T12:23:19.037Z,0.54
2019-01-21T12:25:59.723Z,0.57
2019-01-21T12:28:37.230Z,0.58
2019-01-21T12:31:28.443Z,0.59
2019-01-21T12:34:11.990Z,0.60
2019-01-21T12:36:46.203Z,0.63
2019-01-21T12:39:23.615Z,0.67
2019-01-21T12:41:58.177Z,0.71
2019-01-21T12:44:50.800Z,0.73
2019-01-21T12:47:28.135Z,0.75
2019-01-21T12:50:23.785Z,0.76
2019-01-21T12:52:59.415Z,0.73
2019-01-21T12:55:39.884Z,0.73
2019-01-21T12:58:11.522Z,0.74
2019-01-21T13:01:02.532Z,0.74
2019-01-21T13:03:53.739Z,0.77
2019-01-21T13:06:39.773Z,0.80
2019-01-21T13:09:11.424Z,0.81
2019-01-21T13:11:49.029Z,0.83
2019-01-21T13:14:26.524Z,0.84
2019-01-21T13:17:00.679Z,0.85
2019-01-21T13:19:49.744Z,0.85
2019-01-21T13:22:33.491Z,0.85
2019-01-21T13:25:24.591Z,0.81
2019-01-21T13:27:59.029Z,0.78
2019-01-21T13:30:54.385Z,0.75
2019-01-21T13:33:34.588Z,0.72
2019-01-21T13:36:11.967Z,0.71
2019-01-21T13:38:43.660Z,0.69
2019-01-21T13:41:21.293Z,0.69
2019-01-21T13:43:52.960Z,0.69
2019-01-21T13:46:44.444Z,0.67
2019-01-21T13:49:34.277Z,0.66
2019-01-21T13:52:24.275Z,0.61
2019-01-21T13:55:13.823Z,0.57
2019-01-21T13:58:14.187Z,0.51
2019-01-21T14:00:51.437Z,0.48
2019-01-21T14:03:23.082Z,0.45
2019-01-21T14:06:12.909Z,0.45
2019-01-21T14:08:47.258Z,0.42
2019-01-21T14:11:27.392Z,0.40
2019-01-21T14:13:59.021Z,0.38
2019-01-21T14:16:42.337Z,0.36
2019-01-21T14:19:28.837Z,0.32
2019-01-21T14:22:12.366Z,0.31
2019-01-21T14:24:43.994Z,0.29
2019-01-21T14:27:18.809Z,0.26
2019-01-21T14:30:02.178Z,0.24
2019-01-21T14:32:45.622Z,0.24
2019-01-21T14:35:32.050Z,0.25
2019-01-21T14:38:18.232Z,0.24
2019-01-21T14:40:52.710Z,0.25
2019-01-21T14:43:41.181Z,0.23
2019-01-21T14:46:24.784Z,0.23
2019-01-21T14:49:08.292Z,0.22
2019-01-21T14:51:48.892Z,0.20
2019-01-21T14:54:31.053Z,0.17
2019-01-21T14:57:23.990Z,0.13
2019-01-21T15:00:28.870Z,0.12
2019-01-21T15:03:00.506Z,0.07
2019-01-21T15:05:51.884Z,-0.01
2019-01-21T15:08:23.590Z,-0.05
2019-01-21T15:11:01.208Z,-0.09
2019-01-21T15:13:54.101Z,-0.11
2019-01-21T15:16:34.881Z,-0.11
2019-01-21T15:19:09.522Z,-0.11
2019-01-21T15:21:48.612Z,-0.13
2019-01-21T15:24:39.636Z,-0.14
2019-01-21T15:27:16.984Z,-0.15
2019-01-21T15:30:03.771Z,-0.15
2019-01-21T15:32:41.030Z,-0.14
2019-01-21T15:35:21.518Z,-0.15
2019-01-21T15:37:55.843Z,-0.14
2019-01-21T15:40:33.297Z,-0.15
2019-01-21T15:43:10.751Z,-0.14
2019-01-21T15:45:54.468Z,-0.13
2019-01-21T15:48:34.925Z,-0.12
2019-01-21T15:51:24.676Z,-0.11
2019-01-21T15:54:22.308Z,-0.09
2019-01-21T15:57:16.443Z,-0.09
2019-01-21T16:00:21.345Z,-0.07
2019-01-21T16:03:17.073Z,-0.05
2019-01-21T16:05:51.230Z,-0.02
2019-01-21T16:08:22.637Z,0.01
2019-01-21T16:10:54.291Z,0.01
2019-01-21T16:13:25.979Z,0.03
2019-01-21T16:16:09.482Z,0.03
2019-01-21T16:18:56.165Z,0.02
2019-01-21T16:21:39.862Z,0.02
2019-01-21T16:24:29.848Z,0.02
2019-01-21T16:27:01.506Z,0.02
2019-01-21T16:29:33.142Z,0.02
2019-01-21T16:32:01.773Z,0.03
2019-01-21T16:34:40.299Z,0.03
2019-01-21T16:37:36.339Z,0.04
2019-01-21T16:40:14.006Z,0.04
2019-01-21T16:42:42.523Z,0.07
2019-01-21T16:45:11.027Z,0.08
2019-01-21T16:47:39.501Z,0.10
2019-01-21T16:50:08.740Z,0.12
2019-01-21T16:52:37.203Z,0.13
2019-01-21T16:55:07.693Z,0.14
2019-01-21T16:57:37.215Z,0.14
2019-01-21T17:00:11.588Z,0.15
2019-01-21T17:02:40.063Z,0.17
2019-01-21T17:05:11.198Z,0.17
2019-01-21T17:07:39.668Z,0.19
2019-01-21T17:10:11.085Z,0.21
2019-01-21T17:12:39.585Z,0.24
2019-01-21T17:15:10.960Z,0.23
2019-01-21T17:17:39.428Z,0.25
2019-01-21T17:20:14.022Z,0.25
2019-01-21T17:22:42.493Z,0.27
2019-01-21T17:25:11.214Z,0.26
2019-01-21T17:27:39.731Z,0.25
2019-01-21T17:30:11.371Z,0.24
2019-01-21T17:32:39.844Z,0.23
2019-01-21T17:35:10.492Z,0.21
2019-01-21T17:37:39.023Z,0.18
2019-01-21T17:40:10.893Z,0.17
2019-01-21T17:42:39.450Z,0.16
2019-01-21T17:45:13.902Z,0.15
2019-01-21T17:47:42.360Z,0.14
2019-01-21T17:50:13.204Z,0.14
2019-01-21T17:52:41.731Z,0.16
2019-01-21T17:55:10.884Z,0.17
2019-01-21T17:57:40.125Z,0.18
2019-01-21T18:00:16.197Z,0.17
2019-01-21T18:02:44.709Z,0.17
2019-01-21T18:05:13.164Z,0.18
2019-01-21T18:07:41.702Z,0.19
2019-01-21T18:10:13.139Z,0.19
2019-01-21T18:12:41.717Z,0.22
2019-01-21T18:15:12.020Z,0.25
2019-01-21T18:17:40.518Z,0.25
2019-01-21T18:20:12.100Z,0.27
2019-01-21T18:22:40.644Z,0.28
2019-01-21T18:25:10.484Z,0.29
2019-01-21T18:27:38.951Z,0.30
2019-01-21T18:30:10.578Z,0.29
2019-01-21T18:32:39.238Z,0.28
2019-01-21T18:35:09.934Z,0.29
2019-01-21T18:37:38.464Z,0.29
2019-01-21T18:40:15.302Z,0.29
2019-01-21T18:42:44.417Z,0.31
2019-01-21T18:45:15.812Z,0.31
2019-01-21T18:47:44.315Z,0.31
2019-01-21T18:50:12.847Z,0.32
2019-01-21T18:52:41.309Z,0.31
2019-01-21T18:55:10.376Z,0.33
2019-01-21T18:57:38.834Z,0.33
2019-01-21T19:00:18.059Z,0.33
2019-01-21T19:02:46.479Z,0.33
2019-01-21T19:05:15.009Z,0.32
2019-01-21T19:07:43.515Z,0.31
2019-01-21T19:10:14.114Z,0.31
2019-01-21T19:12:42.581Z,0.31
2019-01-21T19:15:16.821Z,0.30
2019-01-21T19:17:45.284Z,0.29
2019-01-21T19:20:16.089Z,0.30
2019-01-21T19:22:44.661Z,0.31
2019-01-21T19:25:13.298Z,0.29
2019-01-21T19:27:41.769Z,0.29
2019-01-21T19:30:13.469Z,0.30
2019-01-21T19:32:41.932Z,0.32
2019-01-21T19:35:13.418Z,0.31
2019-01-21T19:37:41.974Z,0.32
2019-01-21T19:40:13.606Z,0.33
2019-01-21T19:42:42.083Z,0.35
2019-01-21T19:45:11.930Z,0.36
2019-01-21T19:47:40.555Z,0.35
2019-01-21T19:50:12.160Z,0.34
2019-01-21T19:52:40.769Z,0.32
2019-01-21T19:55:15.237Z,0.32
2019-01-21T19:57:43.720Z,0.32
2019-01-21T20:00:15.642Z,0.34
2019-01-21T20:02:44.572Z,0.33
2019-01-21T20:05:13.307Z,0.37
2019-01-21T20:07:41.864Z,0.36
2019-01-21T20:10:13.756Z,0.38
2019-01-21T20:12:42.214Z,0.38
2019-01-21T20:15:14.074Z,0.38
2019-01-21T20:17:43.326Z,0.37
2019-01-21T20:20:15.175Z,0.37
2019-01-21T20:22:43.784Z,0.38
2019-01-21T20:25:12.712Z,0.39
2019-01-21T20:27:41.177Z,0.40
2019-01-21T20:30:13.098Z,0.41
2019-01-21T20:32:42.439Z,0.44
2019-01-21T20:35:11.046Z,0.46
2019-01-21T20:37:39.548Z,0.48
2019-01-21T20:40:20.024Z,0.50
2019-01-21T20:42:48.526Z,0.52
2019-01-21T20:45:17.224Z,0.55
2019-01-21T20:47:46.028Z,0.58
2019-01-21T20:50:17.283Z,0.60
2019-01-21T20:52:45.740Z,0.61
2019-01-21T20:55:14.647Z,0.61
2019-01-21T20:57:43.142Z,0.58
2019-01-21T21:00:17.673Z,0.64
2019-01-21T21:02:46.412Z,0.63
2019-01-21T21:05:15.402Z,0.64
2019-01-21T21:07:43.860Z,0.63
2019-01-21T21:10:12.744Z,0.64
2019-01-21T21:12:41.338Z,0.63
2019-01-21T21:15:24.645Z,0.63
2019-01-21T21:17:53.136Z,0.63
2019-01-21T21:20:21.599Z,0.63
2019-01-21T21:22:50.056Z,0.62
2019-01-21T21:25:20.153Z,0.52
2019-01-21T21:27:48.626Z,0.60
2019-01-21T21:30:19.896Z,0.52
2019-01-21T21:32:48.401Z,0.59
2019-01-21T21:35:16.844Z,0.59
2019-01-21T21:37:45.320Z,0.59
2019-01-21T21:40:16.626Z,0.60
2019-01-21T21:42:45.244Z,0.59
2019-01-21T21:45:16.039Z,0.59
2019-01-21T21:47:44.545Z,0.60
2019-01-21T21:50:25.083Z,0.62
2019-01-21T21:52:53.569Z,0.63
2019-01-21T21:55:22.035Z,0.62
2019-01-21T21:57:50.657Z,0.62
2019-01-21T22:00:21.677Z,0.60
2019-01-21T22:02:50.696Z,0.60
2019-01-21T22:05:19.629Z,0.61
2019-01-21T22:07:49.070Z,0.63
2019-01-21T22:10:21.476Z,0.63
2019-01-21T22:12:50.144Z,0.63
2019-01-21T22:15:20.691Z,0.65
2019-01-21T22:17:49.162Z,0.66
2019-01-21T22:20:20.236Z,0.66
2019-01-21T22:22:48.803Z,0.67
2019-01-21T22:25:17.661Z,0.67
2019-01-21T22:27:46.124Z,0.68
2019-01-21T22:30:17.341Z,0.67
2019-01-21T22:32:45.814Z,0.66
2019-01-21T22:35:14.345Z,0.65
2019-01-21T22:37:42.932Z,0.66
2019-01-21T22:40:14.507Z,0.65
2019-01-21T22:42:43.037Z,0.63
2019-01-21T22:45:12.767Z,0.61
2019-01-21T22:47:41.373Z,0.61
2019-01-21T22:50:11.975Z,0.60
2019-01-21T22:52:42.049Z,0.60
2019-01-21T22:55:12.674Z,0.61
2019-01-21T22:57:41.137Z,0.62
2019-01-21T23:00:15.713Z,0.61
2019-01-21T23:02:44.464Z,0.55
2019-01-21T23:05:14.072Z,0.59
2019-01-21T23:07:42.566Z,0.57
2019-01-21T23:10:11.037Z,0.55
2019-01-21T23:12:39.499Z,0.53
2019-01-21T23:15:08.960Z,0.53
2019-01-21T23:17:37.426Z,0.51
2019-01-21T23:20:09.129Z,0.52
2019-01-21T23:22:37.642Z,0.48
2019-01-21T23:25:06.839Z,0.47
2019-01-21T23:27:35.297Z,0.43
2019-01-21T23:30:05.442Z,0.41
2019-01-21T23:32:33.913Z,0.40
2019-01-21T23:35:02.373Z,0.38
2019-01-21T23:37:30.859Z,0.36
2019-01-21T23:39:59.309Z,0.34
2019-01-21T23:42:28.057Z,0.32
2019-01-21T23:44:56.550Z,0.32
2019-01-21T23:47:25.187Z,0.30
2019-01-21T23:49:53.651Z,0.29
2019-01-21T23:52:22.167Z,0.27
2019-01-21T23:54:50.635Z,0.28
2019-01-21T23:57:19.102Z,0.27
2019-01-21T23:59:47.592Z,0.28
